Estación Meteorológica Peña el Pijo (Robertgarden) [ 01/30/23 14:37:30 CET ]

Fecha Hora Presion(HPa) Temp (°C) Humedad % Rocio (°C) Viento ( m/s) Direccion Lluvia 1Hora(mm) Lluvia 24H(mm) LLuvia Total(mm)
2010-Mar-20 01:01:13 1017.000 8.1 72 3.4         100.49
2010-Mar-20 02:03:11 1016.600 7.0 74 2.7         100.49
2010-Mar-20 03:01:17 1016.500 6.9 75 2.8         100.49
2010-Mar-20 04:01:14 1016.300 6.6 74 2.3         100.49
2010-Mar-20 05:01:16 1015.900 6.2 76 2.3         100.49
2010-Mar-20 06:01:17 1015.600 6.1 77 2.4         100.49
2010-Mar-20 07:01:18 1015.900 6.6 76 2.6         100.49
2010-Mar-20 08:01:12 1016.100 6.9 77 3.1         100.49
2010-Mar-20 09:01:15 1016.400 8.9 71 3.9         100.49
2010-Mar-20 10:01:13 1016.300 11.6 66 5.4         100.49
2010-Mar-20 11:01:16 1016.700 14.4 57 6.0         100.49
2010-Mar-20 12:01:13 1016.700 17.3 44 4.8 0.5 SSE     100.49
2010-Mar-20 13:01:12 1016.800 14.1 65 7.6         100.49
2010-Mar-20 14:01:13 1016.100 14.8 58 6.6         100.49
2010-Mar-20 15:01:14 1016.000 14.2 57 5.8         100.49
2010-Mar-20 16:01:13 1016.100 13.3 61 5.9         100.49
2010-Mar-20 17:01:14 1016.400 11.2 74 6.7         100.49
2010-Mar-20 18:01:19 1016.300 10.1 82 7.1     1.03 1.03 101.52
2010-Mar-20 19:01:14 1016.300 9.5 86 7.2     1.55 2.59 103.08
2010-Mar-20 20:01:14 1016.200 9.2 88 7.3     1.03 3.62 104.11
2010-Mar-20 21:01:13 1016.200 8.9 89 7.2     0.51 4.14 104.63
2010-Mar-20 22:01:14 1015.700 8.9 91 7.5       4.14 104.63
2010-Mar-20 23:01:10 1015.700 8.5 92 7.3       4.14 104.63

Temperatura Máxima:17°    Temperatura Mínima:
Presión Máxima:1017.000 Hpa    Presión Mínima:1015.600 Hpa


Volver